• Join FlightAware (Why Join?)
  • Login
  • US Flag 
03:14AM EST


 

Airport Tracker/Info


-or-


 

Live Flight TrackerFlight Track Log ✈ N2863W ✈ 30-May-2013 ✈ KIND - KMGY

Flight Track Log - Related Links

Times and Time Zones

All times are in EDT time to prevent confusion due to time zone crossing. See the N2863W flight status page for this flight to view local times or setup timezone preferences in your user account.

Time Position Orientation Groundspeed Altitude Reporting Facility
EDT Latitude Longitude Course Direction KTS MPH feet Rate Location/Type
12:54PM 39.7167 -86.3000 142° Southeast 79 91 1,100  Level Indianapolis TRACON
12:55PM 39.6833 -86.2667 142° Southeast 95 109 2,400 900 Climbing Indianapolis TRACON
12:56PM 39.6667 -86.2333 123° Southeast 97 112 3,300 780 Climbing Indianapolis TRACON
12:57PM 39.6667 -86.2000 90° East 124 143 4,100 780 Climbing Indianapolis TRACON
12:58PM 39.6667 -86.1500 90° East 122 140 4,900 420 Climbing Indianapolis TRACON
12:59PM 39.6667 -86.1000 90° East 156 180 5,000 60 Climbing Indianapolis TRACON
12:59PM 39.6636 -86.0806 102° East 148 170 5,000 -60 Level Indianapolis Center
01:01PM 39.6667 -85.9667 88° East 177 204 4,900  Descending Indianapolis TRACON
01:02PM 39.6667 -85.9167 90° East 175 201 5,000  Climbing Indianapolis TRACON
01:03PM 39.6500 -85.8500 108° East 175 201 5,000  Level Indianapolis TRACON
01:04PM 39.6500 -85.7833 90° East 176 203 5,000  Level Indianapolis TRACON
01:05PM 39.6500 -85.7333 90° East 176 203 5,000  Level Indianapolis TRACON
01:06PM 39.6500 -85.6667 90° East 172 198 5,000 -60 Level Indianapolis TRACON
01:07PM 39.6500 -85.6000 90° East 172 198 4,900  Descending Indianapolis TRACON
01:08PM 39.6500 -85.5500 90° East 169 194 5,000  Climbing Indianapolis TRACON
01:09PM 39.6500 -85.4667 90° East 178 205 5,000  Level Indianapolis TRACON
01:10PM 39.6500 -85.4000 90° East 177 204 5,000  Level Indianapolis TRACON
01:11PM 39.6381 -85.3461 106° East 175 201 5,100  Climbing Indianapolis Center
01:12PM 39.6383 -85.2972 90° East 172 198 5,100  Level Indianapolis Center
01:13PM 39.6353 -85.2372 94° East 170 196 5,100  Level Indianapolis Center
01:14PM 39.6333 -85.1636 92° East 168 193 5,100  Level Indianapolis Center
01:15PM 39.6300 -85.1061 94° East 172 198 5,100 -120 Level Indianapolis Center
01:16PM 39.6258 -85.0322 94° East 180 207 4,900 -60 Descending Indianapolis Center
01:17PM 39.6231 -84.9669 93° East 181 208 5,000 60 Climbing Indianapolis Center
01:17PM 39.6225 -84.9517 93° East 185 213 5,000  Level Indianapolis Center
01:18PM 39.6211 -84.9150 93° East 164 189 5,000 -120 Level Indianapolis Center
01:19PM 39.6219 -84.8919 87° East 165 190 4,900 -420 Descending Indianapolis Center
01:19PM 39.6183 -84.8494 96° East 178 205 4,600 -540 Descending Indianapolis Center
01:20PM 39.6175 -84.8269 93° East 173 199 4,400 -480 Descending Indianapolis Center
01:20PM 39.6136 -84.7811 96° East 182 209 4,100 -420 Descending Indianapolis Center
01:21PM 39.6136 -84.7614 90° East 179 206 4,000 -120 Descending Indianapolis Center
01:21PM 39.6108 -84.7156 94° East 172 198 4,000 60 Level Indianapolis Center
01:22PM 39.6119 -84.7011 84° East 173 199 4,100  Climbing Indianapolis Center
01:22PM 39.6094 -84.6558 94° East 161 185 4,000  Descending Indianapolis Center
01:23PM 39.6092 -84.6325 91° East 165 190 4,100 -420 Climbing Indianapolis Center
01:23PM 39.6100 -84.5989 88° East 162 186 3,600 -900 Descending Indianapolis Center
01:24PM 39.6103 -84.5719 89° East 165 190 3,200 -660 Descending Indianapolis Center
01:24PM 39.6128 -84.5397 84° East 178 205 3,000 -120 Descending Indianapolis Center
01:25PM 39.6144 -84.5089 86° East 171 197 3,100 60 Climbing Indianapolis Center
01:25PM 39.6172 -84.4833 82° East 139 160 3,100  Level Indianapolis Center
01:26PM 39.6175 -84.4606 89° East 150 173 3,100  Level Indianapolis Center
01:28PM 39.6021 -84.3575 101° East  Level FlightAware Approximate
01:35PM 39.5833 -84.2167 90° East  Level FlightAware Approximate
01:36PM 39.5890 -84.2249 90° East  Level Estimated